Time;durP1;ratioP1;P1;durP2;ratioP2;P2;SDS_P1;SDS_P2;PMS_P1;PMS_P2;Temp;Humidity;BMP_temperature;BMP_pressure;BME280_temperature;BME280_humidity;BME280_pressure;Samples;Min_cycle;Max_cycle;Signal;HPM_P1;HPM_P2
2024/03/23 00:00:55;;;;;;;10.25;6.60;;;;;;;4.39;61.70;99563.53;4901270;29;20040;-88
2024/03/23 00:03:22;;;;;;;11.65;6.20;;;;;;;4.23;61.32;99551.63;4899957;29;20033;-87
2024/03/23 00:05:49;;;;;;;10.85;6.60;;;;;;;4.31;61.88;99561.97;4886753;29;20044;-88
2024/03/23 00:08:15;;;;;;;10.48;6.40;;;;;;;4.33;61.50;99556.44;4884867;29;20070;-88
2024/03/23 00:10:42;;;;;;;11.27;6.78;;;;;;;4.27;61.63;99552.81;4885480;29;20028;-88
2024/03/23 00:13:08;;;;;;;11.20;6.95;;;;;;;3.99;62.65;99532.81;4885429;29;20084;-88
2024/03/23 00:15:35;;;;;;;10.95;6.60;;;;;;;4.05;62.10;99542.59;4853200;29;20133;-88
2024/03/23 00:18:01;;;;;;;16.65;6.93;;;;;;;4.02;62.64;99558.19;4866303;29;20472;-88
2024/03/23 00:20:30;;;;;;;10.85;6.32;;;;;;;3.92;62.56;99550.75;4892498;29;20039;-88
2024/03/23 00:22:57;;;;;;;10.50;6.13;;;;;;;3.95;62.75;99544.97;4900101;29;20465;-88
2024/03/23 00:25:24;;;;;;;9.30;5.95;;;;;;;3.82;62.91;99548.56;4895478;29;20033;-87
2024/03/23 00:27:51;;;;;;;10.75;6.47;;;;;;;3.87;62.89;99544.44;4901898;29;20031;-88
2024/03/23 00:30:18;;;;;;;9.25;5.30;;;;;;;3.78;63.33;99547.38;4899413;29;20046;-88
2024/03/23 00:32:46;;;;;;;11.07;6.57;;;;;;;3.60;64.11;99544.69;4901084;29;20028;-88
2024/03/23 00:35:13;;;;;;;10.82;6.60;;;;;;;3.56;64.13;99544.28;4900045;29;20491;-88
2024/03/23 00:37:39;;;;;;;12.60;7.18;;;;;;;3.60;63.73;99542.81;4901222;29;20052;-88
2024/03/23 00:40:08;;;;;;;9.55;6.55;;;;;;;3.51;64.20;99541.47;4900276;29;20056;-88
2024/03/23 00:42:35;;;;;;;14.35;7.50;;;;;;;3.44;64.50;99536.22;4899933;29;20096;-88
2024/03/23 00:45:02;;;;;;;13.57;7.00;;;;;;;3.49;64.35;99548.88;4894074;29;20049;-88
2024/03/23 00:47:28;;;;;;;9.73;6.93;;;;;;;3.47;64.47;99545.63;4916905;29;20032;-87
2024/03/23 00:49:56;;;;;;;11.05;7.38;;;;;;;3.46;64.81;99551.97;4883794;29;20053;-88
2024/03/23 00:52:22;;;;;;;11.63;6.80;;;;;;;3.59;64.13;99543.03;4832750;29;20042;-88
2024/03/23 00:54:47;;;;;;;14.25;7.35;;;;;;;3.45;63.77;99521.06;4846922;29;20029;-89
2024/03/23 00:57:13;;;;;;;11.35;6.80;;;;;;;3.49;64.38;99527.56;4831540;29;20031;-88
2024/03/23 00:59:38;;;;;;;12.82;7.28;;;;;;;3.53;64.25;99531.44;4862399;29;20025;-88
2024/03/23 01:02:04;;;;;;;12.52;7.30;;;;;;;3.48;64.24;99522.47;4847881;29;20052;-88
2024/03/23 01:04:29;;;;;;;12.70;7.38;;;;;;;3.55;64.67;99534.69;4824161;29;20065;-87
2024/03/23 01:06:55;;;;;;;9.93;6.47;;;;;;;3.49;64.41;99522.25;4884487;29;20025;-87
2024/03/23 01:09:20;;;;;;;11.32;7.18;;;;;;;3.54;63.92;99533.03;4865411;29;20029;-87
2024/03/23 01:11:45;;;;;;;14.88;7.20;;;;;;;3.34;64.68;99514.59;4850898;29;20508;-87
2024/03/23 01:14:11;;;;;;;9.70;6.22;;;;;;;3.41;64.31;99523.34;4865289;29;20480;-87
2024/03/23 01:16:36;;;;;;;10.85;6.25;;;;;;;3.56;63.78;99541.63;4882409;29;20029;-89
2024/03/23 01:19:02;;;;;;;13.68;6.57;;;;;;;3.23;64.15;99504.66;4850213;29;20029;-89
2024/03/23 01:21:27;;;;;;;13.38;7.18;;;;;;;3.16;64.77;99506.56;4850059;29;20086;-87
2024/03/23 01:23:53;;;;;;;10.73;6.43;;;;;;;3.15;64.43;99515.56;4880797;29;20065;-88
2024/03/23 01:26:18;;;;;;;10.82;6.60;;;;;;;3.17;64.70;99516.97;4865287;29;20036;-88
2024/03/23 01:28:44;;;;;;;11.25;6.25;;;;;;;3.15;64.73;99513.69;4865610;29;20046;-88
2024/03/23 01:31:09;;;;;;;17.65;6.45;;;;;;;3.12;65.18;99514.16;4841078;29;20037;-88
2024/03/23 01:33:35;;;;;;;14.75;6.53;;;;;;;3.04;64.62;99506.44;4863865;29;20025;-88
2024/03/23 01:36:00;;;;;;;12.10;7.05;;;;;;;2.96;64.78;99498.72;4875998;29;20029;-88
2024/03/23 01:38:26;;;;;;;13.00;6.90;;;;;;;3.07;65.26;99518.47;4850834;29;20029;-88
2024/03/23 01:40:57;;;;;;;10.90;6.72;;;;;;;2.92;65.41;99502.84;4865424;29;20101;-88
2024/03/23 01:43:22;;;;;;;14.33;6.80;;;;;;;2.97;65.38;99521.63;4849776;29;20025;-88
2024/03/23 01:45:48;;;;;;;12.35;6.63;;;;;;;2.90;65.10;99504.91;4886182;29;20306;-88
2024/03/23 01:48:15;;;;;;;13.60;7.03;;;;;;;2.77;65.44;99490.66;4855586;29;20044;-88
2024/03/23 01:50:40;;;;;;;11.63;7.32;;;;;;;2.73;65.36;99486.00;4840728;29;20115;-88
2024/03/23 01:53:06;;;;;;;11.77;6.70;;;;;;;3.05;65.38;99518.72;4887604;29;20048;-88
2024/03/23 01:55:35;;;;;;;12.07;7.40;;;;;;;2.99;65.32;99511.59;4886477;29;20058;-88
2024/03/23 01:58:00;;;;;;;14.07;7.50;;;;;;;2.87;65.32;99484.88;4887463;29;20064;-88
2024/03/23 02:00:27;;;;;;;13.35;6.28;;;;;;;2.86;65.24;99491.19;4870935;29;20048;-88
2024/03/23 02:02:53;;;;;;;11.43;7.05;;;;;;;2.95;65.26;99510.41;4871886;29;20027;-88
2024/03/23 02:05:18;;;;;;;13.65;8.10;;;;;;;2.87;64.84;99487.53;4871075;29;20041;-88
2024/03/23 02:07:44;;;;;;;13.40;7.90;;;;;;;2.96;65.07;99496.88;4887350;29;20093;-88
2024/03/23 02:10:10;;;;;;;14.55;6.80;;;;;;;2.98;64.82;99502.78;4889047;29;20113;-88
2024/03/23 02:12:36;;;;;;;11.95;6.95;;;;;;;2.99;65.39;99500.97;4886591;29;20081;-88
2024/03/23 02:15:01;;;;;;;14.82;7.18;;;;;;;2.92;65.52;99518.78;4872219;29;20029;-87
2024/03/23 02:17:30;;;;;;;11.45;6.82;;;;;;;2.83;65.00;99496.97;4872209;29;20041;-88
2024/03/23 02:19:55;;;;;;;11.55;6.45;;;;;;;2.93;65.02;99517.78;4886515;29;20457;-88
2024/03/23 02:22:21;;;;;;;11.23;6.38;;;;;;;2.75;65.10;99495.38;4871294;29;20085;-89
2024/03/23 02:24:46;;;;;;;13.25;7.88;;;;;;;2.74;65.60;99493.75;4870838;29;20044;-89
2024/03/23 02:27:12;;;;;;;14.20;7.03;;;;;;;2.74;65.38;99508.88;4854855;29;20040;-87
2024/03/23 02:29:37;;;;;;;13.05;7.88;;;;;;;2.59;66.21;99503.84;4871578;29;20093;-87
2024/03/23 02:32:03;;;;;;;15.73;8.13;;;;;;;2.53;66.15;99510.00;4870721;29;20033;-88
2024/03/23 02:34:28;;;;;;;15.48;8.25;;;;;;;2.35;66.33;99490.28;4874828;29;20021;-87
2024/03/23 02:36:54;;;;;;;14.60;8.80;;;;;;;2.46;66.45;99512.72;4890402;29;20391;-87
2024/03/23 02:39:19;;;;;;;15.93;8.48;;;;;;;2.41;66.52;99497.41;4889909;29;20039;-88
2024/03/23 02:41:45;;;;;;;15.30;8.50;;;;;;;2.50;66.71;99505.94;4874564;29;20032;-87
2024/03/23 02:44:11;;;;;;;14.23;8.07;;;;;;;2.61;66.51;99520.41;4873394;29;20116;-87
2024/03/23 02:46:38;;;;;;;20.15;9.27;;;;;;;2.38;66.74;99492.50;4873922;29;20024;-88
2024/03/23 02:49:04;;;;;;;16.50;8.35;;;;;;;2.46;67.11;99520.69;4890174;29;20049;-87
2024/03/23 02:51:30;;;;;;;17.55;9.00;;;;;;;2.34;66.79;99507.25;4906729;29;20412;-89
2024/03/23 02:53:56;;;;;;;13.30;7.63;;;;;;;2.31;66.86;99499.69;4874367;29;20025;-89
2024/03/23 02:56:21;;;;;;;16.45;8.63;;;;;;;2.31;67.25;99504.22;4850931;29;20026;-90
2024/03/23 02:58:47;;;;;;;19.42;7.78;;;;;;;2.07;67.86;99493.25;4819362;29;20124;-89
2024/03/23 03:01:12;;;;;;;12.90;8.40;;;;;;;2.12;67.82;99500.59;4821306;29;20038;-90
2024/03/23 03:03:38;;;;;;;15.35;8.13;;;;;;;2.13;67.69;99507.53;4849163;29;20026;-91
2024/03/23 03:06:03;;;;;;;13.23;7.30;;;;;;;2.17;67.58;99506.09;4851486;29;20029;-91
2024/03/23 03:08:29;;;;;;;12.35;8.02;;;;;;;2.09;67.46;99488.53;4884018;29;20028;-90
2024/03/23 03:10:54;;;;;;;11.48;7.47;;;;;;;2.19;67.72;99499.53;4867756;29;20029;-89
2024/03/23 03:13:20;;;;;;;9.70;6.65;;;;;;;2.15;67.46;99490.34;4852624;29;20036;-90
2024/03/23 03:15:45;;;;;;;15.68;7.75;;;;;;;2.13;67.32;99481.78;4834559;29;20025;-89
2024/03/23 03:18:11;;;;;;;12.73;6.53;;;;;;;2.29;67.08;99504.41;4835498;29;20082;-90
2024/03/23 03:20:40;;;;;;;16.15;6.95;;;;;;;2.22;67.19;99488.50;4851031;29;20033;-91
2024/03/23 03:23:06;;;;;;;12.90;7.38;;;;;;;2.30;66.90;99500.72;4849271;29;20022;-91
2024/03/23 03:25:31;;;;;;;17.17;6.88;;;;;;;2.31;66.89;99499.69;4820201;29;20125;-91
2024/03/23 03:27:57;;;;;;;12.35;7.78;;;;;;;2.19;67.24;99496.88;4820028;29;20022;-91
2024/03/23 03:30:22;;;;;;;12.45;7.25;;;;;;;2.24;67.02;99506.88;4835193;29;20025;-91
2024/03/23 03:32:47;;;;;;;13.35;7.30;;;;;;;2.10;66.94;99497.34;4819484;29;20025;-90
2024/03/23 03:35:13;;;;;;;12.68;6.68;;;;;;;2.09;67.16;99511.63;4818489;29;20033;-90
2024/03/23 03:37:38;;;;;;;12.10;7.45;;;;;;;1.98;67.70;99507.78;4820075;29;20488;-90
2024/03/23 03:40:05;;;;;;;13.65;7.75;;;;;;;1.94;68.16;99494.13;4819562;29;20029;-89
2024/03/23 03:42:30;;;;;;;12.05;7.03;;;;;;;2.00;67.44;99500.44;4819109;29;20501;-90
2024/03/23 03:44:56;;;;;;;14.13;7.80;;;;;;;1.94;67.64;99501.28;4847147;29;20106;-90
2024/03/23 03:47:21;;;;;;;11.20;6.88;;;;;;;1.92;67.61;99508.63;4817061;29;20033;-91
2024/03/23 03:49:47;;;;;;;12.20;8.88;;;;;;;1.86;68.07;99502.31;4831764;29;20041;-91
2024/03/23 03:52:13;;;;;;;19.33;6.85;;;;;;;1.81;67.82;99497.63;4830963;29;20047;-91
2024/03/23 03:54:38;;;;;;;9.85;6.65;;;;;;;2.00;67.75;99511.88;4830469;29;20025;-90
2024/03/23 03:57:04;;;;;;;11.15;6.82;;;;;;;1.92;68.01;99506.78;4816464;29;20143;-90
2024/03/23 03:59:29;;;;;;;10.65;6.78;;;;;;;2.06;66.91;99498.78;4831013;29;20074;-89
2024/03/23 04:01:55;;;;;;;9.48;6.60;;;;;;;2.27;67.01;99516.28;4816004;29;20049;-89
2024/03/23 04:04:22;;;;;;;10.48;5.97;;;;;;;2.45;66.49;99518.22;4816152;29;20034;-90
2024/03/23 04:06:47;;;;;;;11.43;6.00;;;;;;;2.50;66.07;99507.78;4800206;29;20034;-91
2024/03/23 04:09:13;;;;;;;8.93;6.22;;;;;;;2.53;65.11;99497.56;4830934;29;20036;-90
2024/03/23 04:11:38;;;;;;;10.30;6.18;;;;;;;2.65;65.30;99515.47;4830491;29;20033;-90
2024/03/23 04:14:04;;;;;;;13.15;7.50;;;;;;;2.67;64.84;99511.56;4815382;29;20079;-91
2024/03/23 04:16:33;;;;;;;14.60;7.80;;;;;;;2.57;65.09;99503.25;4830929;29;20037;-91
2024/03/23 04:18:59;;;;;;;13.35;8.43;;;;;;;2.48;65.50;99491.25;4831433;29;20406;-90
2024/03/23 04:21:24;;;;;;;17.27;7.50;;;;;;;2.29;65.99;99493.78;4800299;29;20055;-90
2024/03/23 04:23:49;;;;;;;13.10;7.35;;;;;;;2.34;65.57;99512.56;4816215;29;20030;-91
2024/03/23 04:26:15;;;;;;;13.77;7.85;;;;;;;2.34;65.84;99506.44;4863845;29;20039;-91
2024/03/23 04:28:41;;;;;;;16.20;7.40;;;;;;;2.25;66.20;99497.09;4852534;29;20033;-91
2024/03/23 04:31:06;;;;;;;18.42;7.82;;;;;;;2.19;66.55;99498.72;4833824;29;20057;-91
2024/03/23 04:33:33;;;;;;;12.48;6.57;;;;;;;2.08;67.09;99504.72;4832711;29;20025;-91
2024/03/23 04:35:58;;;;;;;10.90;6.47;;;;;;;2.15;66.80;99519.56;4836402;29;20109;-91
2024/03/23 04:38:24;;;;;;;10.90;6.60;;;;;;;1.99;67.09;99504.94;4866816;29;20025;-90
2024/03/23 04:40:56;;;;;;;13.52;6.82;;;;;;;1.91;67.47;99499.00;4867209;29;20503;-90
2024/03/23 04:43:22;;;;;;;10.98;6.47;;;;;;;2.00;66.53;99511.06;4836417;29;20507;-90
2024/03/23 04:45:47;;;;;;;12.15;6.35;;;;;;;2.04;67.69;99522.09;4836113;29;20033;-90
2024/03/23 04:48:13;;;;;;;15.15;6.25;;;;;;;1.99;66.98;99499.63;4851319;29;20025;-90
2024/03/23 04:50:38;;;;;;;13.50;6.65;;;;;;;2.03;67.27;99510.63;4851686;29;20169;-90
2024/03/23 04:53:04;;;;;;;10.10;6.53;;;;;;;2.11;66.70;99498.97;4849912;29;20488;-89
2024/03/23 04:55:30;;;;;;;15.10;7.03;;;;;;;2.10;66.65;99494.69;4836680;29;20033;-90
2024/03/23 04:57:56;;;;;;;11.95;6.25;;;;;;;2.10;66.99;99494.69;4836754;29;20484;-90
2024/03/23 05:00:23;;;;;;;21.08;6.63;;;;;;;2.34;66.51;99517.88;4847734;29;20124;-89
2024/03/23 05:02:48;;;;;;;13.70;7.07;;;;;;;2.28;66.71;99507.28;4833580;29;20025;-90
2024/03/23 05:05:14;;;;;;;14.55;7.00;;;;;;;2.28;66.02;99508.09;4818910;29;20037;-90
2024/03/23 05:07:39;;;;;;;10.82;6.63;;;;;;;2.33;66.39;99512.78;4833103;29;20112;-90
2024/03/23 05:10:05;;;;;;;11.55;5.95;;;;;;;2.39;65.80;99519.91;4818554;29;20030;-89
2024/03/23 05:12:31;;;;;;;13.57;6.82;;;;;;;2.29;66.16;99509.72;4832865;29;20477;-90
2024/03/23 05:14:57;;;;;;;10.10;6.20;;;;;;;2.32;66.86;99506.63;4834565;29;20018;-91
2024/03/23 05:17:23;;;;;;;10.98;6.72;;;;;;;2.50;66.85;99518.44;4823920;29;20037;-91
2024/03/23 05:19:48;;;;;;;9.05;5.97;;;;;;;2.50;65.75;99508.59;4853365;29;20022;-90
2024/03/23 05:22:14;;;;;;;10.13;5.88;;;;;;;2.61;65.78;99518.59;4832495;29;20033;-90
2024/03/23 05:24:39;;;;;;;8.60;5.88;;;;;;;2.62;65.95;99512.22;4828471;29;20030;-90
2024/03/23 05:27:06;;;;;;;11.13;5.38;;;;;;;2.59;65.59;99507.34;4813428;29;20034;-91
2024/03/23 05:29:31;;;;;;;10.45;5.78;;;;;;;2.66;65.36;99498.50;4799380;29;20030;-90
2024/03/23 05:31:57;;;;;;;9.05;6.03;;;;;;;2.74;64.81;99501.72;4814840;29;20032;-91
2024/03/23 05:34:22;;;;;;;9.02;5.82;;;;;;;2.77;64.83;99495.97;4798756;29;20029;-90
2024/03/23 05:36:49;;;;;;;9.00;5.47;;;;;;;2.97;64.28;99505.69;4813731;29;20022;-91
2024/03/23 05:39:16;;;;;;;9.20;5.28;;;;;;;2.98;64.52;99500.13;4814099;29;20030;-91
2024/03/23 05:41:42;;;;;;;10.45;5.65;;;;;;;2.98;64.31;99492.16;4799918;29;20489;-90
2024/03/23 05:44:07;;;;;;;11.30;5.47;;;;;;;3.18;64.20;99501.84;4824344;29;20051;-91
2024/03/23 05:46:33;;;;;;;12.82;8.10;;;;;;;3.17;64.24;99500.19;4900125;29;20047;-90
2024/03/23 05:49:01;;;;;;;10.90;5.85;;;;;;;3.27;63.87;99503.19;4884195;29;20021;-91
2024/03/23 05:51:26;;;;;;;8.30;5.80;;;;;;;3.43;63.58;99507.16;4864506;29;20124;-92
2024/03/23 05:53:52;;;;;;;8.48;5.90;;;;;;;3.40;63.17;99483.63;4862189;29;20032;-91
2024/03/23 05:56:19;;;;;;;8.90;5.03;;;;;;;3.43;62.80;99473.34;4877996;29;20022;-91
2024/03/23 05:58:46;;;;;;;14.07;5.90;;;;;;;3.63;62.46;99486.50;4863425;29;20029;-91
2024/03/23 06:01:12;;;;;;;10.30;5.47;;;;;;;3.76;62.53;99495.38;4862734;29;20058;-91
2024/03/23 06:03:38;;;;;;;8.00;5.68;;;;;;;3.70;62.25;99480.28;4862052;29;20508;-91
2024/03/23 06:06:04;;;;;;;9.50;5.00;;;;;;;3.93;61.96;99498.28;4863263;29;20029;-91
2024/03/23 06:08:29;;;;;;;7.90;4.60;;;;;;;3.91;61.35;99476.38;4862506;29;20085;-91
2024/03/23 06:10:55;;;;;;;9.27;3.92;;;;;;;4.11;60.78;99500.94;4879273;29;20477;-91
2024/03/23 06:13:24;;;;;;;7.93;4.18;;;;;;;4.07;59.58;99481.09;4863045;29;20064;-91
2024/03/23 06:15:50;;;;;;;5.65;4.00;;;;;;;4.26;59.54;99476.56;4877549;29;20085;-91
2024/03/23 06:18:15;;;;;;;6.63;4.20;;;;;;;4.40;59.18;99478.03;4877905;29;20033;-91
2024/03/23 06:20:41;;;;;;;9.38;4.72;;;;;;;4.64;58.62;99478.91;4847838;29;20025;-90
2024/03/23 06:23:07;;;;;;;17.52;7.40;;;;;;;4.71;59.12;99472.66;4877611;29;20463;-91
2024/03/23 06:25:32;;;;;;;6.45;4.75;;;;;;;4.91;59.17;99464.38;4863518;29;20014;-91
2024/03/23 06:28:02;;;;;;;5.75;4.18;;;;;;;4.93;57.31;99459.63;4846710;29;20089;-91
2024/03/23 06:30:29;;;;;;;6.70;3.67;;;;;;;5.28;56.64;99480.22;4846739;29;20105;-91
2024/03/23 06:32:54;;;;;;;6.07;3.90;;;;;;;5.37;56.70;99476.94;4865739;29;20065;-90
2024/03/23 06:35:20;;;;;;;7.28;3.95;;;;;;;5.58;56.62;99470.25;4865730;29;20040;-90
2024/03/23 06:37:45;;;;;;;8.63;4.00;;;;;;;5.82;55.37;99486.25;4882068;29;20069;-90
2024/03/23 06:40:11;;;;;;;5.63;3.70;;;;;;;5.90;54.51;99475.19;4850143;29;20049;-90
2024/03/23 06:42:36;;;;;;;7.30;3.75;;;;;;;6.01;54.40;99474.38;4866476;29;20029;-90
2024/03/23 06:45:04;;;;;;;5.75;3.97;;;;;;;6.13;53.96;99463.66;4865576;29;20054;-90
2024/03/23 06:47:30;;;;;;;6.40;3.65;;;;;;;6.37;53.03;99472.44;4880457;29;20061;-90
2024/03/23 06:49:55;;;;;;;9.13;5.10;;;;;;;6.35;53.29;99461.16;4888949;29;20032;-91
2024/03/23 06:52:21;;;;;;;7.50;4.78;;;;;;;6.47;53.14;99461.94;4853198;29;20036;-91
2024/03/23 06:54:47;;;;;;;6.88;4.55;;;;;;;6.84;52.17;99474.06;4852331;29;20493;-91
2024/03/23 06:57:12;;;;;;;11.10;5.00;;;;;;;6.91;52.33;99461.38;4884601;29;20385;-90
2024/03/23 06:59:41;;;;;;;6.90;4.60;;;;;;;7.00;51.59;99446.50;4852575;29;20025;-91
2024/03/23 07:02:08;;;;;;;10.38;5.47;;;;;;;7.35;50.56;99466.88;4869026;29;20112;-90
2024/03/23 07:04:34;;;;;;;9.25;5.20;;;;;;;7.46;50.51;99451.75;4883472;29;20036;-91
2024/03/23 07:07:01;;;;;;;7.93;5.10;;;;;;;7.51;50.23;99435.75;4852626;29;20037;-91
2024/03/23 07:09:27;;;;;;;10.13;5.25;;;;;;;7.72;49.43;99442.22;4867534;29;20100;-91
2024/03/23 07:11:56;;;;;;;9.65;5.70;;;;;;;7.95;49.74;99451.88;4866823;29;20483;-92
2024/03/23 07:14:22;;;;;;;9.52;5.28;;;;;;;8.05;49.68;99446.66;4854597;29;20037;-90
2024/03/23 07:16:49;;;;;;;8.63;5.15;;;;;;;8.16;48.71;99442.22;4871738;29;20136;-90
2024/03/23 07:19:16;;;;;;;9.15;5.78;;;;;;;8.29;49.00;99451.75;4885258;29;20029;-92
2024/03/23 07:21:42;;;;;;;13.80;6.75;;;;;;;8.39;49.01;99443.00;4841957;29;20038;-93
2024/03/23 07:24:10;;;;;;;11.55;6.50;;;;;;;8.41;48.89;99422.94;4851737;29;20017;-91
2024/03/23 07:26:37;;;;;;;10.70;6.00;;;;;;;8.65;48.56;99438.72;4891735;29;20033;-91
2024/03/23 07:29:03;;;;;;;8.40;6.13;;;;;;;8.75;48.35;99421.91;4868206;29;20025;-91
2024/03/23 07:31:28;;;;;;;8.43;5.70;;;;;;;8.95;47.71;99427.44;4886673;29;20024;-91
2024/03/23 07:33:57;;;;;;;12.43;7.35;;;;;;;8.98;47.59;99424.25;4885808;29;20047;-90
2024/03/23 07:36:24;;;;;;;11.82;5.97;;;;;;;9.08;48.16;99410.09;4854554;29;20033;-90
2024/03/23 07:38:50;;;;;;;10.18;5.40;;;;;;;9.09;47.73;99409.03;4853160;29;20115;-91
2024/03/23 07:41:19;;;;;;;10.77;6.43;;;;;;;9.43;47.17;99419.47;4872042;29;20040;-96
2024/03/23 07:43:46;;;;;;;10.27;5.78;;;;;;;9.67;46.85;99423.38;4851469;29;20041;-94
2024/03/23 07:46:12;;;;;;;12.90;6.75;;;;;;;9.79;46.34;99398.94;4820073;29;20117;-95
2024/03/23 07:48:38;;;;;;;12.40;7.45;;;;;;;10.02;45.92;99405.78;4820587;29;20021;-93
2024/03/23 07:51:07;;;;;;;10.23;5.82;;;;;;;10.27;45.96;99402.34;4820275;29;20029;-93
2024/03/23 07:53:33;;;;;;;8.45;5.57;;;;;;;10.44;44.63;99377.09;4820314;29;20453;-95
2024/03/23 07:56:08;;;;;;;8.00;5.38;;;;;;;10.70;43.71;99389.50;4819963;29;20033;-94
2024/03/23 07:58:33;;;;;;;9.07;5.03;;;;;;;10.85;42.78;99369.03;4820164;29;20031;-94
2024/03/23 08:01:10;;;;;;;7.38;5.07;;;;;;;11.06;42.60;99386.81;4820065;29;20025;-93
2024/03/23 08:03:40;;;;;;;7.57;4.95;;;;;;;11.25;42.22;99397.81;4835182;29;20040;-94
2024/03/23 08:06:13;;;;;;;6.93;4.68;;;;;;;11.40;41.37;99386.19;4819969;29;20108;-93
2024/03/23 08:08:39;;;;;;;5.80;4.13;;;;;;;11.51;41.31;99374.28;4833153;29;20044;-93
2024/03/23 08:11:05;;;;;;;7.53;4.75;;;;;;;11.62;40.94;99363.47;4819973;29;20476;-92
2024/03/23 08:13:31;;;;;;;8.65;4.13;;;;;;;11.86;39.20;99385.25;4820863;29;20021;-94
2024/03/23 08:15:59;;;;;;;9.32;4.22;;;;;;;11.87;38.52;99389.53;4818798;29;20029;-90
2024/03/23 08:18:28;;;;;;;8.57;4.80;;;;;;;11.76;39.05;99356.41;4818358;29;20105;-91
2024/03/23 08:21:00;;;;;;;18.67;4.20;;;;;;;11.92;38.89;99349.88;4833476;29;20045;-92
2024/03/23 08:23:33;;;;;;;5.55;3.45;;;;;;;12.15;37.04;99355.72;4833948;29;20113;-90
2024/03/23 08:26:03;;;;;;;4.60;3.05;;;;;;;12.34;36.91;99353.94;4818865;29;20492;-91
2024/03/23 08:28:28;;;;;;;4.05;2.55;;;;;;;12.51;35.50;99347.34;4834380;29;20033;-91
2024/03/23 08:30:57;;;;;;;5.18;2.85;;;;;;;12.69;34.97;99353.97;4848920;29;20101;-91
2024/03/23 08:33:25;;;;;;;7.55;3.42;;;;;;;12.73;34.86;99339.63;4834385;29;20029;-91
2024/03/23 08:36:03;;;;;;;5.95;2.92;;;;;;;12.92;34.27;99338.91;4834259;29;20043;-92
2024/03/23 08:38:29;;;;;;;5.05;2.50;;;;;;;13.13;33.82;99342.22;4817745;29;20523;-91
2024/03/23 08:41:02;;;;;;;3.25;2.17;;;;;;;13.45;32.82;99363.28;4833674;29;20025;-91
2024/03/23 08:43:28;;;;;;;3.95;2.42;;;;;;;13.34;31.65;99357.19;4833287;29;20030;-92
2024/03/23 08:45:53;;;;;;;4.00;2.33;;;;;;;13.48;31.51;99351.88;4832361;29;20052;-91
2024/03/23 08:48:20;;;;;;;3.75;2.35;;;;;;;13.56;31.85;99339.63;4849288;29;20016;-91
2024/03/23 08:50:47;;;;;;;3.88;2.20;;;;;;;13.79;30.98;99356.13;4848857;29;20022;-92
2024/03/23 08:53:12;;;;;;;3.20;2.03;;;;;;;13.79;30.29;99329.88;4833812;29;20492;-92
2024/03/23 08:55:38;;;;;;;5.43;2.13;;;;;;;14.06;30.41;99345.47;4819788;29;20005;-91
2024/03/23 08:58:04;;;;;;;3.13;2.30;;;;;;;14.08;29.92;99337.06;4863950;29;20420;-91
2024/03/23 09:00:30;;;;;;;3.83;1.95;;;;;;;14.11;29.37;99322.91;4866193;29;20029;-91
2024/03/23 09:02:56;;;;;;;4.43;2.10;;;;;;;14.20;29.25;99325.81;4851865;29;20075;-91
2024/03/23 09:05:24;;;;;;;4.35;2.60;;;;;;;14.31;29.63;99311.00;4852053;29;20041;-91
2024/03/23 09:07:51;;;;;;;4.20;2.58;;;;;;;14.42;29.90;99322.47;4852738;29;20068;-90
2024/03/23 09:10:16;;;;;;;8.45;2.42;;;;;;;14.33;29.77;99306.09;4850697;29;20399;-92
2024/03/23 09:12:42;;;;;;;3.80;2.67;;;;;;;14.41;28.56;99300.00;4850962;29;20028;-91
2024/03/23 09:15:07;;;;;;;4.18;2.45;;;;;;;14.48;28.22;99299.63;4836621;29;20029;-92
2024/03/23 09:17:33;;;;;;;5.65;3.00;;;;;;;14.64;28.70;99298.28;4866076;29;20108;-92
2024/03/23 09:19:58;;;;;;;3.45;2.00;;;;;;;14.72;27.35;99294.09;4837038;29;20029;-92
2024/03/23 09:22:24;;;;;;;5.72;2.25;;;;;;;14.87;27.39;99309.28;4824634;29;20081;-92
2024/03/23 09:24:49;;;;;;;4.28;1.80;;;;;;;14.97;27.37;99300.19;4833117;29;20025;-89
2024/03/23 09:27:15;;;;;;;3.08;2.03;;;;;;;15.01;26.84;99290.34;4847881;29;20049;-90
2024/03/23 09:29:40;;;;;;;4.75;1.58;;;;;;;15.02;26.72;99284.59;4832588;29;20026;-89
2024/03/23 09:32:06;;;;;;;3.95;2.83;;;;;;;15.14;26.56;99274.06;4834153;29;20400;-90
2024/03/23 09:34:31;;;;;;;4.28;2.25;;;;;;;15.28;26.68;99276.78;4851380;29;20103;-89
2024/03/23 09:36:59;;;;;;;5.97;2.63;;;;;;;15.41;26.94;99274.38;4850687;29;20028;-92
2024/03/23 09:39:25;;;;;;;4.38;2.17;;;;;;;15.43;26.27;99264.81;4836293;29;20120;-92
2024/03/23 09:41:50;;;;;;;2.85;1.90;;;;;;;15.47;25.90;99256.88;4839303;29;20064;-91
2024/03/23 09:44:16;;;;;;;5.60;2.78;;;;;;;15.57;25.62;99264.81;4840713;29;20045;-91
2024/03/23 09:46:44;;;;;;;5.20;2.30;;;;;;;15.45;25.00;99251.75;4832937;29;20041;-90
2024/03/23 09:49:12;;;;;;;3.92;2.60;;;;;;;15.52;25.50;99270.31;4862083;29;20574;-92
2024/03/23 09:51:38;;;;;;;7.18;2.30;;;;;;;15.43;25.46;99250.44;4849309;29;20105;-91
2024/03/23 09:54:03;;;;;;;3.25;2.15;;;;;;;15.46;24.82;99252.53;4820099;29;20036;-91
2024/03/23 09:56:29;;;;;;;4.18;2.45;;;;;;;15.48;25.26;99242.19;4834888;29;20109;-91
2024/03/23 09:59:03;;;;;;;3.53;2.05;;;;;;;15.51;25.13;99236.16;4818690;29;20010;-91
2024/03/23 10:01:30;;;;;;;3.17;2.00;;;;;;;15.55;24.64;99234.44;4834085;29;20105;-91
2024/03/23 10:03:56;;;;;;;7.63;2.15;;;;;;;15.66;24.59;99226.88;4864044;29;20029;-92
2024/03/23 10:06:24;;;;;;;5.28;3.80;;;;;;;15.71;24.18;99234.94;4870596;29;20022;-91
2024/03/23 10:08:50;;;;;;;7.45;3.47;;;;;;;15.66;24.77;99226.88;4856272;29;20493;-91
2024/03/23 10:11:17;;;;;;;4.30;2.03;;;;;;;15.88;23.82;99235.09;4837079;29;20033;-91
2024/03/23 10:13:43;;;;;;;4.97;2.30;;;;;;;15.91;23.97;99215.47;4836674;29;20048;-92
2024/03/23 10:16:10;;;;;;;4.28;2.20;;;;;;;16.05;23.55;99220.84;4837409;29;20022;-92
2024/03/23 10:18:39;;;;;;;5.70;2.38;;;;;;;16.05;23.31;99203.75;4836527;29;20037;-91
2024/03/23 10:21:05;;;;;;;5.43;2.92;;;;;;;16.23;23.60;99221.78;4836138;29;20060;-94
2024/03/23 10:23:30;;;;;;;3.50;2.30;;;;;;;16.16;23.54;99194.22;4866180;29;20047;-91
2024/03/23 10:26:13;;;;;;;4.32;1.70;;;;;;;16.15;23.38;99189.91;4835606;29;20025;-92
2024/03/23 10:29:04;;;;;;;4.95;2.08;;;;;;;16.25;23.39;99180.69;4837054;29;20022;-92
2024/03/23 10:31:30;;;;;;;5.03;1.83;;;;;;;16.49;23.03;99204.81;4836656;29;20085;-89
2024/03/23 10:33:56;;;;;;;2.95;1.80;;;;;;;16.40;22.93;99174.88;4862961;29;20350;-90
2024/03/23 10:36:22;;;;;;;3.65;2.08;;;;;;;16.53;22.68;99184.84;4871254;29;20026;-91
2024/03/23 10:38:48;;;;;;;2.38;1.60;;;;;;;16.62;23.07;99198.50;4835360;29;20082;-89
2024/03/23 10:41:13;;;;;;;2.55;1.70;;;;;;;16.47;22.82;99164.34;4835536;29;20488;-91
2024/03/23 10:43:39;;;;;;;2.35;1.55;;;;;;;16.52;23.51;99166.16;4835212;29;20042;-91
2024/03/23 10:46:04;;;;;;;3.25;2.20;;;;;;;16.60;23.17;99159.13;4836675;29;20037;-91
2024/03/23 10:48:34;;;;;;;3.80;2.10;;;;;;;16.68;23.61;99161.88;4847436;29;20036;-94
2024/03/23 10:51:00;;;;;;;4.55;1.92;;;;;;;16.62;22.79;99144.13;4811514;29;20049;-90
2024/03/23 10:53:26;;;;;;;5.00;2.00;;;;;;;16.71;22.90;99136.00;4851038;29;20453;-93
2024/03/23 10:55:52;;;;;;;2.47;1.90;;;;;;;16.57;23.13;99144.25;4820512;29;20033;-91
2024/03/23 10:58:42;;;;;;;4.72;2.15;;;;;;;16.55;23.85;99130.97;4850380;29;20036;-91
2024/03/23 11:01:11;;;;;;;7.40;3.08;;;;;;;16.51;23.59;99124.56;4837150;29;20037;-90
2024/03/23 11:03:38;;;;;;;5.88;1.85;;;;;;;16.70;23.24;99129.75;4819853;29;20037;-91
2024/03/23 11:06:10;;;;;;;3.25;2.05;;;;;;;16.89;23.54;99140.41;4834205;29;20423;-90
2024/03/23 11:08:36;;;;;;;;;;;;;;;17.07;23.28;99138.50;4875129;29;20051;-91
2024/03/23 11:11:23;;;;;;;3.35;2.00;;;;;;;17.02;23.15;99114.19;4870141;29;19950;-89
2024/03/23 11:13:55;;;;;;;2.80;1.85;;;;;;;17.02;23.01;99105.25;4854490;29;20112;-91
2024/03/23 11:16:32;;;;;;;5.80;2.38;;;;;;;17.06;22.87;99109.72;4854526;29;20061;-91
2024/03/23 11:19:41;;;;;;;7.43;2.42;;;;;;;17.13;23.22;99112.75;4842021;29;20021;-93
2024/03/23 11:22:07;;;;;;;2.80;1.92;;;;;;;17.11;23.00;99087.78;4870053;29;20028;-91
2024/03/23 11:24:33;;;;;;;4.78;3.17;;;;;;;17.13;23.20;99079.31;4855862;29;20127;-91
2024/03/23 11:27:05;;;;;;;74.40;43.95;;;;;;;17.02;23.32;99091.63;4856110;29;20508;-90
2024/03/23 11:29:30;;;;;;;;;;;;;;;17.05;22.86;99097.22;4857952;29;20472;-90
2024/03/23 11:31:56;;;;;;;5.80;2.60;;;;;;;17.04;23.06;99090.19;4856667;29;19916;-92